createdAt,value
2022-10-05T00:00:54.956Z,101326.58
2022-10-05T00:03:36.997Z,101329.56
2022-10-05T00:06:05.634Z,101329.61
2022-10-05T00:08:35.784Z,101331.06
2022-10-05T00:11:07.377Z,101334.76
2022-10-05T00:13:35.699Z,101334.85
2022-10-05T00:16:13.012Z,101332.95
2022-10-05T00:18:41.364Z,101336.06
2022-10-05T00:21:18.679Z,101337.29
2022-10-05T00:23:47.372Z,101340.58
2022-10-05T00:26:27.212Z,101340.80
2022-10-05T00:28:55.529Z,101336.70
2022-10-05T00:31:29.588Z,101343.88
2022-10-05T00:33:58.128Z,101344.83
2022-10-05T00:36:26.423Z,101344.97
2022-10-05T00:38:55.143Z,101341.15
2022-10-05T00:41:32.207Z,101341.19
2022-10-05T00:44:08.938Z,101342.08
2022-10-05T00:46:53.270Z,101342.96
2022-10-05T00:50:05.348Z,101343.19
2022-10-05T00:52:51.958Z,101345.86
2022-10-05T00:56:04.154Z,101350.83
2022-10-05T00:58:41.537Z,101352.60
2022-10-05T01:01:38.854Z,101354.19
2022-10-05T01:04:27.078Z,101356.66
2022-10-05T01:07:13.093Z,101354.08
2022-10-05T01:09:59.328Z,101354.67
2022-10-05T01:12:45.526Z,101354.23
2022-10-05T01:15:33.558Z,101352.37
2022-10-05T01:18:01.380Z,101345.98
2022-10-05T01:20:51.842Z,101347.34
2022-10-05T01:23:38.462Z,101343.70
2022-10-05T01:26:30.829Z,101344.48
2022-10-05T01:28:58.977Z,101343.38
2022-10-05T01:31:45.961Z,101344.62
2022-10-05T01:34:44.684Z,101342.76
2022-10-05T01:37:18.849Z,101340.48
2022-10-05T01:39:58.803Z,101341.35
2022-10-05T01:42:36.304Z,101341.69
2022-10-05T01:45:09.843Z,101341.18
2022-10-05T01:47:47.909Z,101340.86
2022-10-05T01:50:24.604Z,101335.33
2022-10-05T01:53:34.634Z,101332.73
2022-10-05T01:56:10.514Z,101331.38
2022-10-05T01:58:53.494Z,101332.98
2022-10-05T02:01:35.957Z,101331.75
2022-10-05T02:04:43.360Z,101332.45
2022-10-05T02:07:16.751Z,101343.27
2022-10-05T02:09:55.860Z,101348.51
2022-10-05T02:12:28.622Z,101350.23
2022-10-05T02:15:03.966Z,101357.14
2022-10-05T02:17:50.866Z,101361.67
2022-10-05T02:20:27.940Z,101364.45
2022-10-05T02:23:06.213Z,101365.50
2022-10-05T02:25:39.006Z,101368.63
2022-10-05T02:28:37.377Z,101365.54
2022-10-05T02:31:19.943Z,101367.64
2022-10-05T02:33:49.094Z,101373.79
2022-10-05T02:36:35.248Z,101375.89
2022-10-05T02:39:32.229Z,101379.02
2022-10-05T02:42:11.400Z,101386.13
2022-10-05T02:44:52.768Z,101392.08
2022-10-05T02:47:49.955Z,101391.07
2022-10-05T02:50:50.722Z,101389.00
2022-10-05T02:53:25.126Z,101391.09
2022-10-05T02:56:08.889Z,101391.30
2022-10-05T02:58:54.789Z,101392.86
2022-10-05T03:01:28.187Z,101394.63
2022-10-05T03:04:08.555Z,101396.20
2022-10-05T03:07:00.636Z,101398.15
2022-10-05T03:09:36.846Z,101399.92
2022-10-05T03:12:33.492Z,101401.34
2022-10-05T03:15:32.299Z,101397.73
2022-10-05T03:18:23.924Z,101401.96
2022-10-05T03:21:00.255Z,101401.35
2022-10-05T03:23:40.155Z,101401.77
2022-10-05T03:26:20.792Z,101403.05
2022-10-05T03:29:14.705Z,101404.85
2022-10-05T03:31:59.488Z,101406.27
2022-10-05T03:34:45.477Z,101409.39
2022-10-05T03:37:23.660Z,101408.17
2022-10-05T03:39:56.229Z,101411.80
2022-10-05T03:42:31.566Z,101409.74
2022-10-05T03:45:22.316Z,101405.10
2022-10-05T03:48:01.290Z,101407.91
2022-10-05T03:50:51.066Z,101407.56
2022-10-05T03:53:27.622Z,101406.36
2022-10-05T03:56:13.880Z,101400.66
2022-10-05T03:58:59.357Z,101405.16
2022-10-05T04:01:42.683Z,101411.05
2022-10-05T04:04:19.145Z,101414.70
2022-10-05T04:06:52.680Z,101416.59
2022-10-05T04:09:39.814Z,101419.86
2022-10-05T04:12:27.840Z,101422.13
2022-10-05T04:15:40.015Z,101421.30
2022-10-05T04:18:31.462Z,101420.13
2022-10-05T04:21:11.551Z,101422.55
2022-10-05T04:23:40.284Z,101422.06
2022-10-05T04:26:14.831Z,101422.77
2022-10-05T04:29:09.345Z,101427.96
2022-10-05T04:31:48.844Z,101435.77
2022-10-05T04:34:35.993Z,101440.61
2022-10-05T04:37:10.983Z,101440.60
2022-10-05T04:39:39.389Z,101441.27
2022-10-05T04:42:27.381Z,101445.27
2022-10-05T04:45:20.139Z,101446.66
2022-10-05T04:48:28.032Z,101447.54
2022-10-05T04:51:05.769Z,101453.26
2022-10-05T04:53:50.964Z,101454.29
2022-10-05T04:56:36.346Z,101452.70
2022-10-05T04:59:54.134Z,101448.33
2022-10-05T05:02:49.696Z,101452.65
2022-10-05T05:06:12.121Z,101458.38
2022-10-05T05:09:12.922Z,101456.48
2022-10-05T05:12:05.723Z,101457.42
2022-10-05T05:14:43.355Z,101453.52
2022-10-05T05:17:42.595Z,101460.70
2022-10-05T05:20:37.897Z,101464.10
2022-10-05T05:23:08.810Z,101462.02
2022-10-05T05:25:55.157Z,101464.46
2022-10-05T05:28:41.309Z,101466.54
2022-10-05T05:31:33.347Z,101471.61
2022-10-05T05:34:13.412Z,101473.02
2022-10-05T05:37:05.559Z,101477.75
2022-10-05T05:39:41.724Z,101477.79
2022-10-05T05:42:20.842Z,101475.52
2022-10-05T05:44:53.559Z,101473.96
2022-10-05T05:47:28.183Z,101475.86
2022-10-05T05:50:17.233Z,101477.56
2022-10-05T05:52:59.217Z,101478.86
2022-10-05T05:55:35.956Z,101480.66
2022-10-05T05:58:10.812Z,101480.39
2022-10-05T06:00:57.122Z,101481.12
2022-10-05T06:03:30.420Z,101480.61
2022-10-05T06:06:04.591Z,101474.04
2022-10-05T06:08:47.341Z,101482.36
2022-10-05T06:11:43.675Z,101484.73
2022-10-05T06:14:35.876Z,101481.27
2022-10-05T06:17:13.620Z,101486.20
2022-10-05T06:19:43.964Z,101487.01
2022-10-05T06:22:18.072Z,101487.30
2022-10-05T06:24:58.016Z,101493.00
2022-10-05T06:27:39.209Z,101494.16
2022-10-05T06:30:17.352Z,101495.33
2022-10-05T06:33:04.080Z,101496.75
2022-10-05T06:35:38.773Z,101498.23
2022-10-05T06:38:23.461Z,101498.95
2022-10-05T06:41:30.766Z,101499.02
2022-10-05T06:44:00.742Z,101495.95
2022-10-05T06:47:10.795Z,101493.30
2022-10-05T06:50:29.688Z,101498.41
2022-10-05T06:53:39.251Z,101503.02
2022-10-05T06:56:19.440Z,101501.77
2022-10-05T06:58:59.310Z,101497.85
2022-10-05T07:01:37.545Z,101503.88
2022-10-05T07:04:42.622Z,101509.23
2022-10-05T07:07:20.312Z,101512.14
2022-10-05T07:09:56.333Z,101513.14
2022-10-05T07:12:40.255Z,101511.05
2022-10-05T07:15:33.836Z,101514.81
2022-10-05T07:18:20.622Z,101516.65
2022-10-05T07:21:29.239Z,101520.59
2022-10-05T07:24:35.733Z,101531.40
2022-10-05T07:27:19.374Z,101530.55
2022-10-05T07:29:56.826Z,101528.83
2022-10-05T07:32:29.273Z,101523.58
2022-10-05T07:35:39.068Z,101519.61
2022-10-05T07:38:26.529Z,101519.54
2022-10-05T07:41:01.109Z,101523.08
2022-10-05T07:44:01.033Z,101533.72
2022-10-05T07:47:06.453Z,101538.89
2022-10-05T07:49:46.323Z,101545.45
2022-10-05T07:52:22.284Z,101549.38
2022-10-05T07:55:05.299Z,101545.42
2022-10-05T07:57:40.831Z,101549.76
2022-10-05T08:00:22.704Z,101556.83
2022-10-05T08:03:10.055Z,101566.67
2022-10-05T08:05:42.711Z,101575.35
2022-10-05T08:08:10.983Z,101581.02
2022-10-05T08:11:31.336Z,101582.64
2022-10-05T08:14:20.503Z,101585.44
2022-10-05T08:16:52.600Z,101590.60
2022-10-05T08:19:30.219Z,101598.46
2022-10-05T08:22:09.071Z,101609.34
2022-10-05T08:24:59.647Z,101620.31
2022-10-05T08:27:43.680Z,101624.66
2022-10-05T08:30:15.849Z,101629.36
2022-10-05T08:33:01.808Z,101629.23
2022-10-05T08:35:44.032Z,101628.34
2022-10-05T08:38:16.782Z,101629.09
2022-10-05T08:40:51.723Z,101629.66
2022-10-05T08:43:38.211Z,101629.77
2022-10-05T08:46:15.133Z,101630.39
2022-10-05T08:49:01.881Z,101629.05
2022-10-05T08:51:51.071Z,101616.96
2022-10-05T08:54:34.030Z,101609.04
2022-10-05T08:57:24.005Z,101604.85
2022-10-05T09:00:05.279Z,101599.69
2022-10-05T09:03:04.190Z,101595.80
2022-10-05T09:06:26.000Z,101599.73
2022-10-05T09:09:29.997Z,101593.40
2022-10-05T09:12:08.470Z,101584.98
2022-10-05T09:15:01.305Z,101578.16
2022-10-05T09:18:07.461Z,101571.19
2022-10-05T09:20:54.233Z,101568.73
2022-10-05T09:23:43.806Z,101570.45
2022-10-05T09:26:39.667Z,101564.39
2022-10-05T09:29:20.085Z,101561.64
2022-10-05T09:32:16.212Z,101561.42
2022-10-05T09:35:22.442Z,101555.05
2022-10-05T09:38:18.254Z,101553.15
2022-10-05T09:40:55.383Z,101565.95
2022-10-05T09:43:58.548Z,101582.76
2022-10-05T09:46:44.636Z,101585.56
2022-10-05T09:49:28.642Z,101589.73
2022-10-05T09:52:30.697Z,101589.91
2022-10-05T09:55:03.013Z,101586.58
2022-10-05T09:58:22.690Z,101585.16
2022-10-05T10:01:16.002Z,101581.94
2022-10-05T10:04:18.322Z,101580.40
2022-10-05T10:07:26.952Z,101577.63
2022-10-05T10:10:29.557Z,101572.35
2022-10-05T10:13:13.982Z,101571.47
2022-10-05T10:16:00.114Z,101566.48
2022-10-05T10:18:36.686Z,101565.66
2022-10-05T10:21:22.847Z,101562.54
2022-10-05T10:23:59.383Z,101562.26
2022-10-05T10:26:36.342Z,101568.90
2022-10-05T10:29:34.277Z,101577.38
2022-10-05T10:32:20.913Z,101581.30
2022-10-05T10:35:06.988Z,101585.16
2022-10-05T10:37:59.808Z,101584.02
2022-10-05T10:40:39.663Z,101584.23
2022-10-05T10:43:35.351Z,101584.91
2022-10-05T10:46:13.779Z,101588.09
2022-10-05T10:48:53.161Z,101576.46
2022-10-05T10:51:45.107Z,101571.73
2022-10-05T10:54:18.917Z,101568.90
2022-10-05T10:56:56.373Z,101566.32
2022-10-05T10:59:31.609Z,101564.16
2022-10-05T11:02:37.609Z,101566.08
2022-10-05T11:05:27.541Z,101559.73
2022-10-05T11:07:58.719Z,101553.88
2022-10-05T11:10:59.057Z,101546.77
2022-10-05T11:13:32.566Z,101537.41
2022-10-05T11:16:19.901Z,101535.20
2022-10-05T11:19:16.094Z,101545.41
2022-10-05T11:22:19.297Z,101544.40
2022-10-05T11:25:05.507Z,101554.92
2022-10-05T11:28:00.939Z,101559.28
2022-10-05T11:30:54.778Z,101558.19
2022-10-05T11:33:53.355Z,101551.68
2022-10-05T11:36:39.488Z,101544.92
2022-10-05T11:39:19.328Z,101545.64
2022-10-05T11:42:09.054Z,101538.33
2022-10-05T11:45:03.855Z,101542.87
2022-10-05T11:47:51.993Z,101554.33
2022-10-05T11:50:39.247Z,101559.29
2022-10-05T11:53:27.277Z,101557.08
2022-10-05T11:56:13.422Z,101552.83
2022-10-05T11:58:54.440Z,101555.40
2022-10-05T12:01:43.933Z,101554.23
2022-10-05T12:04:47.706Z,101554.76
2022-10-05T12:07:34.271Z,101554.00
2022-10-05T12:10:21.706Z,101552.69
2022-10-05T12:13:28.953Z,101548.50
2022-10-05T12:16:10.711Z,101549.48
2022-10-05T12:18:48.419Z,101546.58
2022-10-05T12:21:25.368Z,101549.64
2022-10-05T12:24:08.649Z,101550.30
2022-10-05T12:26:41.663Z,101545.73
2022-10-05T12:29:46.490Z,101540.07
2022-10-05T12:32:21.152Z,101538.56
2022-10-05T12:35:02.011Z,101537.95
2022-10-05T12:37:43.426Z,101537.41
2022-10-05T12:40:41.933Z,101536.05
2022-10-05T12:43:32.424Z,101535.09
2022-10-05T12:46:08.492Z,101528.20
2022-10-05T12:48:56.628Z,101525.48
2022-10-05T12:51:40.015Z,101519.06
2022-10-05T12:54:21.723Z,101515.92
2022-10-05T12:56:59.158Z,101517.86
2022-10-05T12:59:47.640Z,101519.04
2022-10-05T13:02:49.468Z,101523.27
2022-10-05T13:05:40.906Z,101522.60
2022-10-05T13:08:14.037Z,101525.64
2022-10-05T13:11:01.981Z,101521.29
2022-10-05T13:13:41.091Z,101514.88
2022-10-05T13:16:15.792Z,101508.09
2022-10-05T13:19:06.660Z,101506.07
2022-10-05T13:21:51.175Z,101507.38
2022-10-05T13:24:47.238Z,101508.48
2022-10-05T13:27:29.801Z,101502.16
2022-10-05T13:30:02.448Z,101491.73
2022-10-05T13:32:43.089Z,101490.45
2022-10-05T13:35:32.600Z,101485.61
2022-10-05T13:38:24.762Z,101481.30
2022-10-05T13:41:13.397Z,101475.61
2022-10-05T13:44:00.516Z,101475.64
2022-10-05T13:46:58.182Z,101479.67
2022-10-05T13:49:40.549Z,101472.38
2022-10-05T13:52:09.155Z,101473.41
2022-10-05T13:54:45.794Z,101470.27
2022-10-05T13:57:23.261Z,101466.19
2022-10-05T14:00:13.590Z,101461.81
2022-10-05T14:02:43.658Z,101462.48
2022-10-05T14:05:22.107Z,101470.16
2022-10-05T14:07:55.929Z,101474.16
2022-10-05T14:10:36.714Z,101473.73
2022-10-05T14:13:34.981Z,101477.84
2022-10-05T14:16:20.906Z,101475.42
2022-10-05T14:19:09.493Z,101472.78
2022-10-05T14:22:11.301Z,101472.41
2022-10-05T14:25:14.041Z,101472.14
2022-10-05T14:28:03.795Z,101470.70
2022-10-05T14:30:32.941Z,101469.94
2022-10-05T14:33:03.641Z,101467.60
2022-10-05T14:35:43.965Z,101468.99
2022-10-05T14:38:22.756Z,101469.41
2022-10-05T14:41:17.924Z,101467.80
2022-10-05T14:43:53.863Z,101466.21
2022-10-05T14:46:27.866Z,101464.68
2022-10-05T14:49:38.277Z,101466.76
2022-10-05T14:52:32.540Z,101463.43
2022-10-05T14:55:23.925Z,101464.66
2022-10-05T14:58:05.624Z,101460.39
2022-10-05T15:00:46.859Z,101458.92
2022-10-05T15:03:19.787Z,101456.88
2022-10-05T15:05:58.996Z,101454.48
2022-10-05T15:08:53.407Z,101453.70
2022-10-05T15:11:40.460Z,101454.15
2022-10-05T15:14:22.385Z,101460.85
2022-10-05T15:16:54.269Z,101457.21
2022-10-05T15:19:53.098Z,101462.39
2022-10-05T15:22:46.599Z,101465.92
2022-10-05T15:25:37.265Z,101469.21
2022-10-05T15:28:26.964Z,101473.00
2022-10-05T15:31:03.448Z,101478.42
2022-10-05T15:33:41.602Z,101488.27
2022-10-05T15:36:23.015Z,101493.31
2022-10-05T15:39:02.233Z,101494.64
2022-10-05T15:41:35.773Z,101491.38
2022-10-05T15:44:26.328Z,101478.79
2022-10-05T15:46:58.794Z,101487.36
2022-10-05T15:49:57.331Z,101493.98
2022-10-05T15:52:36.096Z,101495.34
2022-10-05T15:55:06.846Z,101491.78
2022-10-05T15:58:08.151Z,101486.56
2022-10-05T16:00:55.159Z,101484.88
2022-10-05T16:03:48.990Z,101483.15
2022-10-05T16:07:31.597Z,101484.59
2022-10-05T16:10:11.632Z,101481.82
2022-10-05T16:12:55.031Z,101485.36
2022-10-05T16:15:43.300Z,101488.05
2022-10-05T16:18:18.913Z,101489.52
2022-10-05T16:20:57.156Z,101488.88
2022-10-05T16:23:53.016Z,101487.67
2022-10-05T16:26:31.870Z,101482.88
2022-10-05T16:29:14.649Z,101488.02
2022-10-05T16:31:54.393Z,101486.06
2022-10-05T16:34:25.516Z,101491.38
2022-10-05T16:37:31.119Z,101492.77
2022-10-05T16:40:10.232Z,101499.65
2022-10-05T16:42:44.280Z,101505.27
2022-10-05T16:45:14.882Z,101511.24
2022-10-05T16:47:50.436Z,101519.77
2022-10-05T16:50:30.309Z,101522.63
2022-10-05T16:53:04.904Z,101525.56
2022-10-05T16:55:42.155Z,101527.89
2022-10-05T16:58:47.561Z,101530.88
2022-10-05T17:01:43.796Z,101533.02
2022-10-05T17:04:39.242Z,101529.72
2022-10-05T17:07:21.421Z,101531.60
2022-10-05T17:09:59.466Z,101531.02
2022-10-05T17:12:51.540Z,101527.44
2022-10-05T17:15:40.591Z,101523.55
2022-10-05T17:18:17.978Z,101519.46
2022-10-05T17:21:08.029Z,101515.20
2022-10-05T17:23:58.757Z,101513.93
2022-10-05T17:26:47.184Z,101513.34
2022-10-05T17:29:28.100Z,101515.92
2022-10-05T17:32:09.286Z,101515.59
2022-10-05T17:34:40.005Z,101520.11
2022-10-05T17:37:35.846Z,101518.66
2022-10-05T17:40:35.209Z,101512.45
2022-10-05T17:43:15.621Z,101510.73
2022-10-05T17:45:43.512Z,101516.17
2022-10-05T17:48:13.327Z,101517.40
2022-10-05T17:51:03.415Z,101519.65
2022-10-05T17:53:52.568Z,101515.60
2022-10-05T17:56:22.988Z,101522.80
2022-10-05T17:58:54.487Z,101517.98
2022-10-05T18:01:32.858Z,101517.20
2022-10-05T18:04:13.042Z,101525.13
2022-10-05T18:06:44.666Z,101523.63
2022-10-05T18:09:20.789Z,101527.36
2022-10-05T18:12:16.459Z,101529.17
2022-10-05T18:14:59.936Z,101532.11
2022-10-05T18:17:45.223Z,101537.16
2022-10-05T18:20:27.101Z,101541.11
2022-10-05T18:23:05.916Z,101540.00
2022-10-05T18:25:51.719Z,101542.56
2022-10-05T18:28:28.610Z,101541.68
2022-10-05T18:31:26.065Z,101544.33
2022-10-05T18:34:15.459Z,101548.51
2022-10-05T18:36:49.454Z,101550.25
2022-10-05T18:39:37.353Z,101541.00
2022-10-05T18:42:27.350Z,101542.21
2022-10-05T18:44:55.915Z,101541.67
2022-10-05T18:47:48.100Z,101541.86
2022-10-05T18:50:38.504Z,101547.56
2022-10-05T18:53:13.501Z,101548.24
2022-10-05T18:56:10.735Z,101552.14
2022-10-05T18:59:01.001Z,101552.20
2022-10-05T19:02:16.987Z,101552.66
2022-10-05T19:04:47.901Z,101549.55
2022-10-05T19:07:27.857Z,101548.84
2022-10-05T19:10:17.951Z,101550.23
2022-10-05T19:13:16.291Z,101552.39
2022-10-05T19:16:08.471Z,101555.08
2022-10-05T19:19:01.287Z,101554.09
2022-10-05T19:21:54.511Z,101549.33
2022-10-05T19:25:09.928Z,101549.91
2022-10-05T19:28:00.302Z,101550.29
2022-10-05T19:30:47.432Z,101544.61
2022-10-05T19:33:31.140Z,101541.75
2022-10-05T19:36:02.091Z,101541.41
2022-10-05T19:38:53.799Z,101541.41
2022-10-05T19:41:46.068Z,101533.33
2022-10-05T19:44:46.099Z,101534.20
2022-10-05T19:47:44.398Z,101532.11
2022-10-05T19:50:21.989Z,101532.20
2022-10-05T19:52:57.429Z,101529.71
2022-10-05T19:55:34.657Z,101534.55
2022-10-05T19:58:19.081Z,101535.74
2022-10-05T20:01:01.569Z,101532.04
2022-10-05T20:03:31.825Z,101531.98
2022-10-05T20:06:03.261Z,101530.58
2022-10-05T20:09:18.203Z,101532.56
2022-10-05T20:11:50.798Z,101534.35
2022-10-05T20:14:32.814Z,101534.43
2022-10-05T20:17:45.082Z,101532.76
2022-10-05T20:20:34.356Z,101532.63
2022-10-05T20:23:24.695Z,101534.27
2022-10-05T20:26:11.865Z,101535.48
2022-10-05T20:28:40.288Z,101534.58
2022-10-05T20:31:09.020Z,101536.77
2022-10-05T20:33:36.918Z,101536.35
2022-10-05T20:36:05.002Z,101537.09
2022-10-05T20:38:40.063Z,101538.18
2022-10-05T20:41:09.204Z,101541.80
2022-10-05T20:43:39.437Z,101543.27
2022-10-05T20:46:07.706Z,101540.91
2022-10-05T20:48:36.842Z,101540.07
2022-10-05T20:51:05.161Z,101534.50
2022-10-05T20:53:34.013Z,101534.34
2022-10-05T20:56:04.668Z,101538.74
2022-10-05T20:58:32.551Z,101543.70
2022-10-05T21:01:18.604Z,101534.77
2022-10-05T21:03:47.191Z,101536.65
2022-10-05T21:06:15.248Z,101537.89
2022-10-05T21:08:43.392Z,101541.27
2022-10-05T21:11:11.679Z,101545.05
2022-10-05T21:13:45.677Z,101539.91
2022-10-05T21:16:17.190Z,101538.79
2022-10-05T21:18:47.406Z,101539.48
2022-10-05T21:21:18.620Z,101533.96
2022-10-05T21:23:48.144Z,101530.90
2022-10-05T21:26:16.409Z,101537.24
2022-10-05T21:28:44.541Z,101536.95
2022-10-05T21:31:13.262Z,101535.44
2022-10-05T21:33:41.635Z,101536.34
2022-10-05T21:36:10.127Z,101537.62
2022-10-05T21:38:38.286Z,101539.57
2022-10-05T21:41:08.048Z,101536.12
2022-10-05T21:43:37.509Z,101534.05
2022-10-05T21:46:06.243Z,101529.38
2022-10-05T21:48:36.766Z,101528.51
2022-10-05T21:51:05.498Z,101528.17
2022-10-05T21:53:39.037Z,101524.40
2022-10-05T21:56:12.616Z,101522.69
2022-10-05T21:58:44.717Z,101521.08
2022-10-05T22:01:13.330Z,101519.83
2022-10-05T22:03:41.705Z,101516.19
2022-10-05T22:06:10.377Z,101515.02
2022-10-05T22:08:38.303Z,101518.39
2022-10-05T22:11:12.842Z,101520.98
2022-10-05T22:13:46.699Z,101516.77
2022-10-05T22:16:16.705Z,101512.55
2022-10-05T22:18:45.142Z,101514.88
2022-10-05T22:21:14.249Z,101508.92
2022-10-05T22:23:43.767Z,101507.39
2022-10-05T22:26:14.587Z,101507.04
2022-10-05T22:28:43.487Z,101504.02
2022-10-05T22:31:12.881Z,101509.00
2022-10-05T22:33:41.324Z,101501.55
2022-10-05T22:36:10.117Z,101501.23
2022-10-05T22:38:38.290Z,101498.09
2022-10-05T22:41:11.232Z,101498.78
2022-10-05T22:43:39.350Z,101506.69
2022-10-05T22:46:10.238Z,101498.49
2022-10-05T22:48:39.170Z,101498.80
2022-10-05T22:51:07.467Z,101497.86
2022-10-05T22:53:36.129Z,101494.20
2022-10-05T22:56:06.816Z,101496.00
2022-10-05T22:58:35.609Z,101497.52
2022-10-05T23:01:08.541Z,101496.82
2022-10-05T23:03:36.949Z,101501.86
2022-10-05T23:06:10.833Z,101505.16
2022-10-05T23:08:39.916Z,101511.72
2022-10-05T23:11:11.670Z,101511.86
2022-10-05T23:13:40.553Z,101512.75
2022-10-05T23:16:11.658Z,101512.44
2022-10-05T23:18:41.130Z,101511.91
2022-10-05T23:21:10.529Z,101512.44
2022-10-05T23:23:40.833Z,101513.68
2022-10-05T23:26:11.594Z,101512.84
2022-10-05T23:28:43.354Z,101514.43
2022-10-05T23:31:11.257Z,101518.23
2022-10-05T23:33:39.229Z,101518.20
2022-10-05T23:36:12.821Z,101514.35
2022-10-05T23:38:41.686Z,101512.44
2022-10-05T23:41:09.922Z,101512.87
2022-10-05T23:43:38.083Z,101508.48
2022-10-05T23:46:07.484Z,101508.50
2022-10-05T23:48:39.170Z,101510.33
2022-10-05T23:51:09.791Z,101516.89
2022-10-05T23:53:37.921Z,101521.32
2022-10-05T23:56:06.349Z,101525.64
2022-10-05T23:58:34.384Z,101522.48
